createdAt,value
2022-08-31T00:02:00.927Z,2.35
2022-08-31T00:04:28.544Z,1.73
2022-08-31T00:06:55.318Z,1.73
2022-08-31T00:09:22.243Z,1.90
2022-08-31T00:11:48.967Z,2.08
2022-08-31T00:14:15.966Z,2.22
2022-08-31T00:16:46.036Z,1.90
2022-08-31T00:19:13.075Z,1.90
2022-08-31T00:21:39.915Z,1.95
2022-08-31T00:24:06.981Z,2.10
2022-08-31T00:26:34.026Z,2.10
2022-08-31T00:29:00.801Z,2.25
2022-08-31T00:31:28.862Z,2.30
2022-08-31T00:33:56.580Z,2.10
2022-08-31T00:36:25.665Z,2.15
2022-08-31T00:38:54.070Z,1.90
2022-08-31T00:41:25.024Z,1.85
2022-08-31T00:44:01.014Z,2.15
2022-08-31T00:46:31.816Z,1.80
2022-08-31T00:49:11.212Z,1.92
2022-08-31T00:52:12.887Z,2.40
2022-08-31T00:54:44.953Z,1.85
2022-08-31T00:57:13.098Z,2.40
2022-08-31T00:59:42.608Z,2.00
2022-08-31T01:02:09.842Z,2.03
2022-08-31T01:04:37.017Z,1.90
2022-08-31T01:07:06.100Z,2.00
2022-08-31T01:09:37.936Z,2.10
2022-08-31T01:12:07.880Z,2.20
2022-08-31T01:14:36.851Z,2.00
2022-08-31T01:17:06.729Z,1.98
2022-08-31T01:19:38.193Z,2.30
2022-08-31T01:22:17.275Z,2.42
2022-08-31T01:24:46.941Z,2.20
2022-08-31T01:27:16.326Z,1.85
2022-08-31T01:29:43.043Z,3.95
2022-08-31T01:32:09.968Z,3.97
2022-08-31T01:34:36.772Z,3.67
2022-08-31T01:37:03.667Z,3.70
2022-08-31T01:39:30.519Z,4.18
2022-08-31T01:41:58.590Z,4.20
2022-08-31T01:44:27.274Z,4.20
2022-08-31T01:46:54.798Z,5.15
2022-08-31T01:49:23.150Z,4.00
2022-08-31T01:51:51.717Z,4.22
2022-08-31T01:54:20.213Z,4.22
2022-08-31T01:56:48.419Z,4.22
2022-08-31T01:59:21.945Z,4.35
2022-08-31T02:02:09.090Z,4.45
2022-08-31T02:04:36.814Z,5.47
2022-08-31T02:07:03.853Z,5.43
2022-08-31T02:09:33.996Z,4.47
2022-08-31T02:12:00.962Z,5.15
2022-08-31T02:14:27.734Z,5.63
2022-08-31T02:16:54.646Z,5.15
2022-08-31T02:19:21.375Z,5.13
2022-08-31T02:21:48.089Z,5.18
2022-08-31T02:24:15.015Z,6.18
2022-08-31T02:26:41.925Z,5.03
2022-08-31T02:29:08.751Z,4.50
2022-08-31T02:31:36.104Z,4.85
2022-08-31T02:34:03.178Z,4.55
2022-08-31T02:36:31.529Z,4.70
2022-08-31T02:39:01.749Z,4.50
2022-08-31T02:41:29.024Z,4.80
2022-08-31T02:43:55.963Z,4.10
2022-08-31T02:46:23.087Z,4.68
2022-08-31T02:49:08.597Z,4.40
2022-08-31T02:51:38.893Z,4.18
2022-08-31T02:54:05.890Z,4.57
2022-08-31T02:56:32.619Z,4.53
2022-08-31T02:58:59.962Z,4.55
2022-08-31T03:01:26.839Z,4.43
2022-08-31T03:03:53.551Z,4.55
2022-08-31T03:06:22.793Z,4.32
2022-08-31T03:08:50.284Z,4.20
2022-08-31T03:11:17.445Z,4.38
2022-08-31T03:13:44.374Z,4.10
2022-08-31T03:16:14.458Z,4.32
2022-08-31T03:18:42.200Z,4.20
2022-08-31T03:21:09.293Z,4.22
2022-08-31T03:23:36.767Z,4.57
2022-08-31T03:26:05.738Z,4.80
2022-08-31T03:28:34.352Z,4.40
2022-08-31T03:31:20.148Z,4.20
2022-08-31T03:33:47.293Z,5.22
2022-08-31T03:36:15.833Z,4.70
2022-08-31T03:38:43.179Z,5.30
2022-08-31T03:41:12.398Z,5.20
2022-08-31T03:43:39.181Z,5.57
2022-08-31T03:46:06.113Z,5.95
2022-08-31T03:48:36.725Z,6.40
2022-08-31T03:51:03.743Z,5.70
2022-08-31T03:53:35.317Z,5.70
2022-08-31T03:56:06.997Z,5.50
2022-08-31T03:58:36.028Z,4.85
2022-08-31T04:01:02.867Z,5.15
2022-08-31T04:03:52.512Z,5.13
2022-08-31T04:06:39.387Z,5.47
2022-08-31T04:09:24.981Z,5.35
2022-08-31T04:12:19.003Z,5.45
2022-08-31T04:15:08.963Z,6.32
2022-08-31T04:18:01.188Z,6.00
2022-08-31T04:20:44.379Z,6.70
2022-08-31T04:23:11.951Z,5.97
2022-08-31T04:25:52.458Z,4.90
2022-08-31T04:28:19.158Z,5.80
2022-08-31T04:30:46.714Z,6.03
2022-08-31T04:33:16.427Z,5.43
2022-08-31T04:35:43.538Z,5.70
2022-08-31T04:38:11.179Z,6.18
2022-08-31T04:40:41.937Z,5.97
2022-08-31T04:43:09.294Z,5.47
2022-08-31T04:45:41.034Z,5.55
2022-08-31T04:48:09.048Z,6.32
2022-08-31T04:50:41.853Z,7.00
2022-08-31T04:53:09.649Z,7.07
2022-08-31T04:55:40.496Z,6.78
2022-08-31T04:58:08.026Z,7.75
2022-08-31T05:00:35.689Z,7.32
2022-08-31T05:03:21.337Z,15.95
2022-08-31T05:06:04.688Z,7.57
2022-08-31T05:08:31.909Z,6.78
2022-08-31T05:10:59.125Z,6.35
2022-08-31T05:13:26.442Z,6.40
2022-08-31T05:15:55.382Z,6.18
2022-08-31T05:18:22.234Z,5.78
2022-08-31T05:20:55.274Z,5.43
2022-08-31T05:23:22.020Z,6.10
2022-08-31T05:25:49.504Z,6.00
2022-08-31T05:28:16.727Z,6.05
2022-08-31T05:30:44.737Z,6.68
2022-08-31T05:33:22.639Z,5.47
2022-08-31T05:35:49.737Z,5.35
2022-08-31T05:38:16.447Z,6.07
2022-08-31T05:40:43.233Z,4.93
2022-08-31T05:43:10.006Z,5.22
2022-08-31T05:45:36.905Z,4.97
2022-08-31T05:48:03.807Z,4.95
2022-08-31T05:50:34.025Z,5.00
2022-08-31T05:53:01.299Z,4.63
2022-08-31T05:55:28.638Z,4.45
2022-08-31T05:57:56.200Z,4.72
2022-08-31T06:00:25.084Z,4.22
2022-08-31T06:03:00.509Z,4.05
2022-08-31T06:05:28.590Z,4.22
2022-08-31T06:07:57.057Z,4.20
2022-08-31T06:10:25.244Z,4.47
2022-08-31T06:12:53.013Z,4.80
2022-08-31T06:15:20.955Z,4.63
2022-08-31T06:17:47.719Z,4.90
2022-08-31T06:20:17.766Z,4.40
2022-08-31T06:22:46.509Z,4.25
2022-08-31T06:25:19.390Z,4.55
2022-08-31T06:27:50.356Z,4.15
2022-08-31T06:30:19.362Z,4.63
2022-08-31T06:32:47.245Z,4.63
2022-08-31T06:35:15.466Z,5.00
2022-08-31T06:37:56.851Z,4.65
2022-08-31T06:40:46.313Z,4.45
2022-08-31T06:43:31.864Z,4.22
2022-08-31T06:46:02.256Z,3.70
2022-08-31T06:48:32.208Z,4.22
2022-08-31T06:50:59.359Z,4.05
2022-08-31T06:53:26.848Z,3.85
2022-08-31T06:56:23.264Z,3.47
2022-08-31T06:59:09.605Z,4.15
2022-08-31T07:02:01.218Z,4.32
2022-08-31T07:04:34.877Z,3.88
2022-08-31T07:07:03.005Z,4.13
2022-08-31T07:09:29.987Z,4.30
2022-08-31T07:11:56.885Z,4.75
2022-08-31T07:14:26.710Z,4.35
2022-08-31T07:16:57.427Z,4.10
2022-08-31T07:19:26.071Z,3.85
2022-08-31T07:21:56.461Z,4.00
2022-08-31T07:24:27.705Z,3.47
2022-08-31T07:26:59.975Z,3.88
2022-08-31T07:29:40.922Z,3.90
2022-08-31T07:32:13.593Z,3.60
2022-08-31T07:34:43.788Z,5.63
2022-08-31T07:37:51.960Z,4.38
2022-08-31T07:40:42.490Z,3.15
2022-08-31T07:43:11.591Z,3.92
2022-08-31T07:46:08.447Z,3.65
2022-08-31T07:48:36.177Z,3.42
2022-08-31T07:51:24.468Z,4.10
2022-08-31T07:54:13.347Z,3.75
2022-08-31T07:57:04.341Z,3.90
2022-08-31T07:59:33.649Z,3.97
2022-08-31T08:02:03.991Z,3.78
2022-08-31T08:04:32.027Z,4.45
2022-08-31T08:07:18.305Z,3.55
2022-08-31T08:10:14.978Z,3.58
2022-08-31T08:13:05.826Z,4.22
2022-08-31T08:15:45.510Z,4.05
2022-08-31T08:18:41.946Z,3.90
2022-08-31T08:21:09.082Z,3.90
2022-08-31T08:23:36.123Z,4.18
2022-08-31T08:26:22.406Z,4.05
2022-08-31T08:29:08.757Z,4.03
2022-08-31T08:31:42.629Z,3.92
2022-08-31T08:34:10.736Z,3.45
2022-08-31T08:36:38.101Z,3.17
2022-08-31T08:39:07.622Z,4.07
2022-08-31T08:41:38.957Z,3.53
2022-08-31T08:44:10.045Z,3.65
2022-08-31T08:46:48.858Z,3.67
2022-08-31T08:49:49.857Z,3.83
2022-08-31T08:52:28.505Z,3.63
2022-08-31T08:55:00.947Z,3.70
2022-08-31T08:57:32.075Z,3.05
2022-08-31T09:00:07.643Z,3.42
2022-08-31T09:02:58.266Z,3.90
2022-08-31T09:06:02.862Z,3.53
2022-08-31T09:09:28.920Z,3.70
2022-08-31T09:11:58.388Z,3.05
2022-08-31T09:14:28.709Z,3.78
2022-08-31T09:17:27.694Z,3.40
2022-08-31T09:20:06.295Z,3.10
2022-08-31T09:22:50.251Z,3.33
2022-08-31T09:25:35.943Z,3.85
2022-08-31T09:28:15.245Z,3.42
2022-08-31T09:30:44.733Z,3.63
2022-08-31T09:33:46.559Z,3.45
2022-08-31T09:36:16.558Z,3.90
2022-08-31T09:38:46.965Z,4.13
2022-08-31T09:41:31.095Z,3.25
2022-08-31T09:44:35.182Z,3.72
2022-08-31T09:47:13.455Z,4.10
2022-08-31T09:49:53.288Z,3.60
2022-08-31T09:52:47.621Z,3.70
2022-08-31T09:55:24.870Z,4.30
2022-08-31T09:57:57.579Z,3.83
2022-08-31T10:00:28.527Z,4.53
2022-08-31T10:03:08.836Z,3.70
2022-08-31T10:05:43.503Z,3.22
2022-08-31T10:08:28.992Z,3.05
2022-08-31T10:11:01.685Z,3.53
2022-08-31T10:13:58.719Z,3.70
2022-08-31T10:16:26.793Z,3.80
2022-08-31T10:19:09.687Z,3.42
2022-08-31T10:21:52.271Z,3.95
2022-08-31T10:24:33.354Z,4.32
2022-08-31T10:27:12.975Z,4.43
2022-08-31T10:29:52.581Z,4.18
2022-08-31T10:32:33.621Z,4.22
2022-08-31T10:35:08.510Z,3.92
2022-08-31T10:38:01.434Z,3.47
2022-08-31T10:40:32.404Z,3.72
2022-08-31T10:43:31.778Z,3.70
2022-08-31T10:45:59.654Z,3.50
2022-08-31T10:48:27.393Z,3.30
2022-08-31T10:51:18.047Z,3.58
2022-08-31T10:54:06.730Z,3.13
2022-08-31T10:56:41.341Z,3.58
2022-08-31T10:59:37.831Z,4.00
2022-08-31T11:02:25.993Z,3.55
2022-08-31T11:05:18.810Z,3.63
2022-08-31T11:08:00.099Z,4.10
2022-08-31T11:10:51.797Z,3.47
2022-08-31T11:13:57.162Z,3.40
2022-08-31T11:16:46.623Z,3.97
2022-08-31T11:19:38.019Z,4.35
2022-08-31T11:22:07.822Z,4.65
2022-08-31T11:25:07.533Z,4.70
2022-08-31T11:27:44.408Z,4.43
2022-08-31T11:30:29.770Z,3.50
2022-08-31T11:33:00.271Z,4.65
2022-08-31T11:36:09.985Z,4.90
2022-08-31T11:39:01.778Z,4.18
2022-08-31T11:41:51.600Z,4.40
2022-08-31T11:44:30.138Z,3.22
2022-08-31T11:47:21.049Z,3.40
2022-08-31T11:49:51.053Z,4.60
2022-08-31T11:52:32.110Z,4.15
2022-08-31T11:55:01.471Z,4.70
2022-08-31T11:57:36.947Z,3.88
2022-08-31T12:00:19.265Z,4.63
2022-08-31T12:03:02.673Z,4.55
2022-08-31T12:05:58.007Z,3.90
2022-08-31T12:08:28.151Z,3.63
2022-08-31T12:11:17.733Z,4.85
2022-08-31T12:14:13.202Z,4.15
2022-08-31T12:16:57.726Z,4.60
2022-08-31T12:20:00.451Z,5.95
2022-08-31T12:23:30.266Z,4.10
2022-08-31T12:26:10.195Z,4.18
2022-08-31T12:29:20.649Z,3.85
2022-08-31T12:32:21.693Z,3.60
2022-08-31T12:35:19.017Z,5.20
2022-08-31T12:37:57.104Z,5.20
2022-08-31T12:40:26.004Z,4.90
2022-08-31T12:42:55.519Z,5.60
2022-08-31T12:45:31.140Z,6.50
2022-08-31T12:48:03.723Z,5.88
2022-08-31T12:50:42.668Z,6.60
2022-08-31T12:53:55.575Z,6.38
2022-08-31T12:56:41.640Z,5.80
2022-08-31T12:59:13.970Z,6.15
2022-08-31T13:02:05.143Z,6.00
2022-08-31T13:04:32.257Z,6.05
2022-08-31T13:07:19.093Z,6.00
2022-08-31T13:09:46.091Z,5.80
2022-08-31T13:12:23.130Z,6.30
2022-08-31T13:14:49.996Z,6.25
2022-08-31T13:17:21.839Z,6.13
2022-08-31T13:19:54.620Z,5.70
2022-08-31T13:22:34.187Z,5.72
2022-08-31T13:25:35.765Z,5.90
2022-08-31T13:28:14.218Z,6.25
2022-08-31T13:30:55.044Z,6.22
2022-08-31T13:33:32.268Z,6.60
2022-08-31T13:36:07.472Z,6.75
2022-08-31T13:38:44.725Z,6.55
2022-08-31T13:41:27.259Z,6.43
2022-08-31T13:44:01.287Z,6.80
2022-08-31T13:46:43.136Z,6.47
2022-08-31T13:49:30.994Z,6.22
2022-08-31T13:51:58.712Z,5.40
2022-08-31T13:54:26.821Z,4.43
2022-08-31T13:56:58.841Z,4.20
2022-08-31T13:59:31.582Z,6.20
2022-08-31T14:02:16.567Z,4.63
2022-08-31T14:04:43.890Z,4.38
2022-08-31T14:07:23.821Z,5.65
2022-08-31T14:09:55.855Z,4.03
2022-08-31T14:12:36.175Z,4.47
2022-08-31T14:15:17.547Z,4.05
2022-08-31T14:18:23.768Z,4.53
2022-08-31T14:20:33.897Z,5.72
2022-08-31T14:23:28.030Z,4.85
2022-08-31T14:26:04.787Z,4.72
2022-08-31T14:28:43.124Z,3.63
2022-08-31T14:31:37.076Z,3.80
2022-08-31T14:34:07.067Z,4.03
2022-08-31T14:36:38.991Z,3.30
2022-08-31T14:39:07.258Z,3.50
2022-08-31T14:41:34.166Z,4.43
2022-08-31T14:44:09.212Z,3.40
2022-08-31T14:46:38.666Z,3.80
2022-08-31T14:49:07.149Z,3.30
2022-08-31T14:51:35.605Z,3.28
2022-08-31T14:54:02.383Z,3.15
2022-08-31T14:56:33.137Z,3.67
2022-08-31T14:59:04.158Z,3.20
2022-08-31T15:01:35.577Z,3.25
2022-08-31T15:04:04.305Z,3.28
2022-08-31T15:06:32.998Z,3.25
2022-08-31T15:09:05.003Z,3.17
2022-08-31T15:11:36.932Z,2.50
2022-08-31T15:14:05.583Z,2.88
2022-08-31T15:16:32.411Z,2.75
2022-08-31T15:18:59.750Z,2.90
2022-08-31T15:21:28.237Z,2.67
2022-08-31T15:23:55.015Z,2.58
2022-08-31T15:26:22.905Z,2.20
2022-08-31T15:28:52.480Z,2.80
2022-08-31T15:31:24.792Z,2.97
2022-08-31T15:33:55.210Z,2.60
2022-08-31T15:36:24.948Z,3.00
2022-08-31T15:38:57.151Z,2.97
2022-08-31T15:41:28.346Z,2.63
2022-08-31T15:43:56.445Z,2.55
2022-08-31T15:46:43.174Z,2.65
2022-08-31T15:49:11.237Z,3.30
2022-08-31T15:51:48.998Z,2.90
2022-08-31T15:54:22.464Z,3.00
2022-08-31T15:56:51.092Z,3.45
2022-08-31T15:59:17.988Z,3.40
2022-08-31T16:01:45.165Z,3.33
2022-08-31T16:04:16.151Z,2.58
2022-08-31T16:06:42.999Z,3.65
2022-08-31T16:09:10.393Z,3.03
2022-08-31T16:11:37.790Z,3.45
2022-08-31T16:14:05.824Z,3.17
2022-08-31T16:16:35.847Z,3.05
2022-08-31T16:19:04.639Z,2.85
2022-08-31T16:21:34.526Z,3.00
2022-08-31T16:24:04.853Z,2.80
2022-08-31T16:26:36.994Z,2.83
2022-08-31T16:29:07.747Z,2.72
2022-08-31T16:31:34.841Z,2.15
2022-08-31T16:34:01.664Z,2.28
2022-08-31T16:36:28.561Z,2.70
2022-08-31T16:38:56.766Z,2.53
2022-08-31T16:41:26.411Z,1.80
2022-08-31T16:44:19.101Z,1.63
2022-08-31T16:46:46.707Z,1.95
2022-08-31T16:49:31.888Z,1.80
2022-08-31T16:52:00.581Z,1.90
2022-08-31T16:54:42.908Z,1.70
2022-08-31T16:57:12.827Z,1.63
2022-08-31T16:59:43.275Z,2.10
2022-08-31T17:02:12.641Z,1.73
2022-08-31T17:04:52.054Z,1.73
2022-08-31T17:07:22.176Z,2.05
2022-08-31T17:09:52.679Z,2.15
2022-08-31T17:12:21.521Z,1.88
2022-08-31T17:14:52.215Z,1.90
2022-08-31T17:17:22.189Z,1.65
2022-08-31T17:19:49.271Z,1.63
2022-08-31T17:22:25.585Z,2.03
2022-08-31T17:24:56.308Z,1.85
2022-08-31T17:27:24.991Z,1.85
2022-08-31T17:29:56.314Z,1.80
2022-08-31T17:32:26.884Z,1.98
2022-08-31T17:34:54.827Z,2.08
2022-08-31T17:37:36.343Z,2.33
2022-08-31T17:40:08.150Z,2.00
2022-08-31T17:42:35.686Z,1.80
2022-08-31T17:45:06.606Z,1.65
2022-08-31T17:47:34.195Z,2.00
2022-08-31T17:50:01.105Z,1.83
2022-08-31T17:52:28.207Z,1.80
2022-08-31T17:54:55.327Z,2.15
2022-08-31T17:57:26.236Z,1.80
2022-08-31T17:59:54.774Z,2.08
2022-08-31T18:02:32.302Z,2.25
2022-08-31T18:04:59.952Z,1.95
2022-08-31T18:07:27.964Z,2.10
2022-08-31T18:09:57.762Z,2.38
2022-08-31T18:12:25.681Z,1.80
2022-08-31T18:14:53.905Z,2.20
2022-08-31T18:17:22.412Z,2.33
2022-08-31T18:19:49.559Z,2.20
2022-08-31T18:22:19.847Z,1.95
2022-08-31T18:24:46.797Z,2.15
2022-08-31T18:27:15.445Z,2.10
2022-08-31T18:29:44.123Z,1.85
2022-08-31T18:32:11.718Z,1.83
2022-08-31T18:34:44.631Z,1.98
2022-08-31T18:37:12.904Z,2.38
2022-08-31T18:39:59.910Z,2.25
2022-08-31T18:42:46.697Z,2.30
2022-08-31T18:45:16.665Z,2.53
2022-08-31T18:48:01.506Z,2.00
2022-08-31T18:50:35.058Z,2.35
2022-08-31T18:53:08.145Z,2.30
2022-08-31T18:55:40.689Z,2.10
2022-08-31T18:58:07.458Z,2.22
2022-08-31T19:00:57.252Z,2.40
2022-08-31T19:03:25.718Z,2.47
2022-08-31T19:05:52.540Z,2.13
2022-08-31T19:08:45.582Z,2.55
2022-08-31T19:11:13.290Z,2.50
2022-08-31T19:13:41.082Z,2.30
2022-08-31T19:16:15.506Z,1.92
2022-08-31T19:18:44.037Z,2.30
2022-08-31T19:21:23.836Z,2.20
2022-08-31T19:23:51.775Z,2.50
2022-08-31T19:26:37.269Z,2.10
2022-08-31T19:29:08.761Z,2.22
2022-08-31T19:31:40.818Z,2.25
2022-08-31T19:34:08.807Z,2.28
2022-08-31T19:36:38.087Z,2.05
2022-08-31T19:39:07.791Z,2.13
2022-08-31T19:41:36.018Z,2.05
2022-08-31T19:44:08.070Z,1.92
2022-08-31T19:46:37.658Z,2.25
2022-08-31T19:49:07.475Z,2.10
2022-08-31T19:51:35.933Z,2.25
2022-08-31T19:54:03.279Z,2.00
2022-08-31T19:56:30.965Z,2.40
2022-08-31T19:58:59.337Z,2.28
2022-08-31T20:01:33.465Z,2.58
2022-08-31T20:04:08.054Z,2.50
2022-08-31T20:06:34.887Z,2.45
2022-08-31T20:09:01.757Z,2.20
2022-08-31T20:11:30.769Z,2.30
2022-08-31T20:13:59.423Z,2.60
2022-08-31T20:20:56.573Z,2.20
2022-08-31T20:23:23.641Z,2.30
2022-08-31T20:25:51.416Z,2.78
2022-08-31T20:28:25.369Z,2.30
2022-08-31T20:30:59.825Z,2.65
2022-08-31T20:33:27.502Z,2.72
2022-08-31T20:35:54.366Z,2.65
2022-08-31T20:38:21.194Z,2.50
2022-08-31T20:40:52.356Z,2.28
2022-08-31T20:43:21.215Z,2.10
2022-08-31T20:45:48.757Z,2.38
2022-08-31T20:48:34.072Z,2.35
2022-08-31T20:51:16.002Z,2.38
2022-08-31T20:53:44.512Z,2.15
2022-08-31T20:56:14.897Z,2.17
2022-08-31T20:58:45.871Z,2.40
2022-08-31T21:01:13.998Z,2.10
2022-08-31T21:03:41.762Z,2.00
2022-08-31T21:06:14.492Z,2.28
2022-08-31T21:08:42.726Z,2.33
2022-08-31T21:11:18.186Z,2.10
2022-08-31T21:13:46.798Z,2.20
2022-08-31T21:16:14.923Z,2.08
2022-08-31T21:18:42.449Z,2.35
2022-08-31T21:21:17.619Z,2.25
2022-08-31T21:23:46.226Z,2.33
2022-08-31T21:26:21.429Z,2.80
2022-08-31T21:28:49.195Z,2.05
2022-08-31T21:31:28.891Z,2.17
2022-08-31T21:34:02.303Z,2.30
2022-08-31T21:36:32.984Z,2.60
2022-08-31T21:39:00.577Z,2.30
2022-08-31T21:41:28.873Z,2.40
2022-08-31T21:43:57.126Z,2.55
2022-08-31T21:46:27.463Z,2.28
2022-08-31T21:48:57.427Z,2.30
2022-08-31T21:51:36.570Z,2.22
2022-08-31T21:54:14.412Z,2.15
2022-08-31T21:56:47.528Z,2.03
2022-08-31T21:59:16.885Z,2.40
2022-08-31T22:01:45.011Z,2.15
2022-08-31T22:04:13.978Z,1.95
2022-08-31T22:06:43.065Z,2.42
2022-08-31T22:09:15.759Z,2.00
2022-08-31T22:11:45.957Z,1.80
2022-08-31T22:14:16.378Z,2.15
2022-08-31T22:16:46.529Z,2.00
2022-08-31T22:19:16.180Z,2.05
2022-08-31T22:21:46.478Z,2.10
2022-08-31T22:24:27.832Z,2.08
2022-08-31T22:27:08.827Z,1.88
2022-08-31T22:29:37.791Z,1.80
2022-08-31T22:32:08.709Z,2.33
2022-08-31T22:34:37.555Z,2.08
2022-08-31T22:37:05.748Z,1.98
2022-08-31T22:39:32.935Z,1.70
2022-08-31T22:42:25.676Z,1.52
2022-08-31T22:44:53.211Z,1.80
2022-08-31T22:47:20.066Z,1.77
2022-08-31T22:49:46.882Z,2.10
2022-08-31T22:52:17.188Z,1.80
2022-08-31T22:54:44.379Z,1.95
2022-08-31T22:57:11.159Z,1.63
2022-08-31T22:59:39.160Z,1.80
2022-08-31T23:02:06.046Z,2.10
2022-08-31T23:04:34.379Z,1.88
2022-08-31T23:07:03.532Z,2.08
2022-08-31T23:09:31.230Z,2.03
2022-08-31T23:12:00.774Z,2.10
2022-08-31T23:14:28.774Z,1.90
2022-08-31T23:17:00.661Z,2.05
2022-08-31T23:19:36.511Z,2.03
2022-08-31T23:22:07.545Z,1.83
2022-08-31T23:24:44.802Z,1.90
2022-08-31T23:27:13.774Z,2.05
2022-08-31T23:29:47.756Z,2.08
2022-08-31T23:32:17.491Z,2.08
2022-08-31T23:34:46.461Z,2.10
2022-08-31T23:37:14.088Z,2.08
2022-08-31T23:39:45.817Z,1.88
2022-08-31T23:42:15.568Z,2.25
2022-08-31T23:44:44.077Z,2.40
2022-08-31T23:47:15.059Z,1.95
2022-08-31T23:49:43.772Z,2.25
2022-08-31T23:52:18.583Z,2.10
2022-08-31T23:54:46.854Z,2.55
2022-08-31T23:57:31.313Z,2.13
